Terminal Aerodrome Forecast
Issued by NWS

Home | Current Version | Previous Version | Text Only | Print | Product List | Glossary On
Versions: 1 2 3 4 5 6 7 8 9 10 11 12 13 14 15
344
FTUS42 KMLB 282328
TAFSUA
TAF
KSUA 282328Z 2900/2924 06007KT P6SM SCT040 BKN120
     FM290200 VRB03KT P6SM FEW040 BKN250
     FM291400 VRB04KT P6SM SCT030
     FM291700 07008KT P6SM VCSH SCT040=

USA.gov is the U.S. government's official web portal to all federal, state and local government web resources and services.